Time;durP1;ratioP1;P1;durP2;ratioP2;P2;SDS_P1;SDS_P2;PMS_P1;PMS_P2;Temp;Humidity;BMP_temperature;BMP_pressure;BME280_temperature;BME280_humidity;BME280_pressure;Samples;Min_cycle;Max_cycle;Signal;HPM_P1;HPM_P2
2023/09/04 00:02:17;;;;;;;9.47;1.60;;;;;;;18.61;99.99;101137.47;4999527;28;20280;-61
2023/09/04 00:04:47;;;;;;;6.83;1.40;;;;;;;18.59;97.26;101149.91;5008650;28;20750;-58
2023/09/04 00:07:18;;;;;;;7.50;1.27;;;;;;;18.58;96.97;101148.19;4999148;28;20288;-58
2023/09/04 00:09:51;;;;;;;6.73;1.23;;;;;;;18.64;96.37;101147.94;5028233;28;20298;-59
2023/09/04 00:12:22;;;;;;;2.57;0.63;;;;;;;18.73;95.36;101142.34;5018744;28;20371;-59
2023/09/04 00:14:52;;;;;;;4.83;1.10;;;;;;;18.87;95.45;101133.91;5028254;28;20351;-59
2023/09/04 00:17:22;;;;;;;5.57;1.17;;;;;;;18.59;94.05;101087.22;4979495;28;20800;-60
2023/09/04 00:19:53;;;;;;;3.33;1.17;;;;;;;18.61;94.22;101138.34;5008090;28;20658;-62
2023/09/04 00:22:24;;;;;;;4.60;1.00;;;;;;;18.53;96.21;101129.81;4997875;28;20292;-59
2023/09/04 00:24:56;;;;;;;6.20;1.10;;;;;;;18.54;95.39;101120.94;5027829;28;20289;-60
2023/09/04 00:27:26;;;;;;;3.60;1.20;;;;;;;18.51;95.07;101127.22;5017321;28;20302;-59
2023/09/04 00:29:57;;;;;;;4.67;1.07;;;;;;;18.52;94.81;101128.97;5026951;28;20295;-59
2023/09/04 00:32:27;;;;;;;5.83;1.10;;;;;;;18.63;95.97;101135.66;4997008;28;20589;-60
2023/09/04 00:34:58;;;;;;;6.13;1.40;;;;;;;18.60;96.18;101141.06;5006186;28;20280;-60
2023/09/04 00:37:28;;;;;;;8.77;1.33;;;;;;;18.26;96.47;101100.75;5007120;28;20777;-60
2023/09/04 00:40:00;;;;;;;9.23;1.63;;;;;;;18.74;97.05;101150.19;5001313;28;20276;-60
2023/09/04 00:42:33;;;;;;;3.03;1.23;;;;;;;18.73;95.51;101142.34;5007641;28;20706;-62
2023/09/04 00:45:04;;;;;;;4.60;1.20;;;;;;;18.96;95.60;101152.97;4997875;28;20298;-59
2023/09/04 00:47:35;;;;;;;6.03;1.20;;;;;;;19.04;93.54;101151.81;5007462;28;20834;-59
2023/09/04 00:50:09;;;;;;;3.40;1.30;;;;;;;18.85;92.86;101152.50;4998585;28;20280;-57
2023/09/04 00:52:41;;;;;;;6.47;1.40;;;;;;;18.62;93.48;101140.09;5007612;28;20272;-58
2023/09/04 01:14:21;;;;;;;7.30;1.87;;;;;;;19.28;90.84;101145.59;4955379;28;20640;-60
2023/09/04 01:16:54;;;;;;;6.13;1.70;;;;;;;19.34;90.00;101139.19;4993210;28;20292;-59
2023/09/04 01:19:24;;;;;;;7.63;1.67;;;;;;;19.42;90.04;101136.22;4987708;28;20679;-59
2023/09/04 01:21:56;;;;;;;6.30;1.50;;;;;;;19.38;90.73;101125.75;4988004;28;20283;-59
2023/09/04 01:24:27;;;;;;;8.80;1.70;;;;;;;19.36;90.99;101124.94;4976949;28;20277;-60
2023/09/04 01:27:06;;;;;;;10.37;1.70;;;;;;;19.27;90.46;101117.38;4987788;28;20284;-57
2023/09/04 01:29:42;;;;;;;12.73;1.90;;;;;;;19.13;92.01;101125.00;4981979;28;20276;-60
2023/09/04 01:32:20;;;;;;;9.47;2.20;;;;;;;19.31;91.34;101118.97;4993185;28;20100;-61
2023/09/04 01:34:51;;;;;;;9.40;1.83;;;;;;;19.54;92.09;101125.16;4987420;28;20368;-61
2023/09/04 01:37:25;;;;;;;6.17;1.70;;;;;;;19.61;88.79;101116.03;4977417;28;20285;-58
2023/09/04 01:39:56;;;;;;;6.33;1.63;;;;;;;19.69;89.79;101124.56;4986810;28;20285;-58
2023/09/04 01:42:26;;;;;;;12.43;1.93;;;;;;;19.42;89.98;101136.22;4976015;28;20958;-59
2023/09/04 01:44:57;;;;;;;10.73;1.57;;;;;;;19.27;90.26;101135.94;4968037;28;20315;-58
2023/09/04 01:47:28;;;;;;;11.03;2.07;;;;;;;19.15;92.35;101154.94;4960769;28;20384;-59
2023/09/04 01:49:58;;;;;;;10.63;2.00;;;;;;;19.45;91.83;101136.13;4982323;28;20285;-58
2023/09/04 01:52:30;;;;;;;8.10;1.60;;;;;;;19.34;90.56;101140.03;4986887;28;20300;-58
2023/09/04 01:55:01;;;;;;;11.60;2.30;;;;;;;19.26;90.44;101126.22;4993320;28;20284;-59
2023/09/04 01:57:31;;;;;;;9.20;1.67;;;;;;;19.20;91.23;101126.50;5006446;28;20284;-62
2023/09/04 02:00:02;;;;;;;10.97;2.00;;;;;;;19.14;90.90;101116.09;4996668;28;20277;-60
2023/09/04 02:02:32;;;;;;;8.30;2.03;;;;;;;19.10;92.97;101125.13;5006168;28;20387;-63
2023/09/04 02:05:03;;;;;;;8.43;1.80;;;;;;;19.14;93.88;101118.75;4996255;28;20319;-61
2023/09/04 02:07:35;;;;;;;9.07;2.23;;;;;;;19.06;92.70;101120.84;5005975;28;20294;-59
2023/09/04 02:10:06;;;;;;;14.30;2.77;;;;;;;19.02;93.00;101095.38;4996255;28;20295;-61
2023/09/04 02:12:37;;;;;;;6.77;2.17;;;;;;;19.16;92.12;101114.28;5005860;28;20287;-61
2023/09/04 02:15:08;;;;;;;8.43;2.20;;;;;;;19.33;91.46;101095.94;5004934;28;20345;-58
2023/09/04 02:17:38;;;;;;;13.17;2.60;;;;;;;19.35;90.58;101104.69;5025439;28;20278;-60
2023/09/04 02:20:10;;;;;;;7.60;1.57;;;;;;;19.39;91.27;101101.00;5015673;28;20280;-59
2023/09/04 02:22:42;;;;;;;9.27;1.60;;;;;;;19.42;89.21;101109.72;5025886;28;20761;-59
2023/09/04 02:25:12;;;;;;;7.40;1.50;;;;;;;19.39;90.21;101105.41;4997065;28;20610;-61
2023/09/04 02:27:43;;;;;;;7.27;2.10;;;;;;;19.56;89.62;101091.50;5005946;28;20784;-60
2023/09/04 02:30:14;;;;;;;8.47;1.60;;;;;;;19.55;90.74;101095.09;4995831;28;20284;-59
2023/09/04 02:32:44;;;;;;;8.03;2.33;;;;;;;19.43;88.32;101095.56;5005721;28;20276;-57
2023/09/04 02:35:15;;;;;;;11.67;2.00;;;;;;;19.10;89.84;101103.91;4995874;28;20280;-57
2023/09/04 02:37:47;;;;;;;11.73;2.00;;;;;;;18.94;91.64;101109.78;5006045;28;20280;-61
2023/09/04 02:40:18;;;;;;;8.73;1.97;;;;;;;19.05;91.33;101113.84;4995401;28;20335;-59
2023/09/04 02:42:48;;;;;;;9.20;2.07;;;;;;;19.14;90.93;101086.97;5005388;28;20267;-58
2023/09/04 02:45:19;;;;;;;13.13;1.93;;;;;;;19.25;90.74;101076.84;4996116;28;20277;-60
2023/09/04 02:47:49;;;;;;;7.83;1.77;;;;;;;19.27;90.89;101080.28;5005964;28;20304;-63
2023/09/04 02:50:20;;;;;;;6.40;1.37;;;;;;;19.43;91.38;101082.31;4995895;28;20272;-61
2023/09/04 02:52:52;;;;;;;10.10;2.10;;;;;;;19.55;91.39;101073.88;5005330;28;20295;-61
2023/09/04 02:55:23;;;;;;;9.10;1.87;;;;;;;19.78;90.50;101081.75;4978849;28;20276;-61
2023/09/04 02:57:53;;;;;;;12.47;2.27;;;;;;;19.83;87.63;101085.09;4985651;28;20369;-60
2023/09/04 03:00:24;;;;;;;4.50;1.23;;;;;;;19.63;88.90;101087.66;4995266;28;20804;-62
2023/09/04 03:02:54;;;;;;;8.07;2.00;;;;;;;19.31;89.77;101076.56;5006291;28;20284;-60
2023/09/04 03:05:27;;;;;;;14.47;1.77;;;;;;;19.35;91.15;101080.84;4995274;28;20295;-59
2023/09/04 03:07:59;;;;;;;9.17;2.00;;;;;;;19.60;92.13;101093.09;5003320;28;20681;-62
2023/09/04 03:10:32;;;;;;;6.33;1.70;;;;;;;19.46;89.04;101096.31;5005625;28;20922;-60
2023/09/04 03:13:02;;;;;;;11.87;2.67;;;;;;;19.29;90.17;101094.31;4996157;28;20653;-63
2023/09/04 03:15:33;;;;;;;8.27;1.93;;;;;;;19.10;91.57;101098.63;5005777;28;20280;-60
2023/09/04 03:18:05;;;;;;;7.87;1.83;;;;;;;19.05;91.84;101116.47;4996825;28;20323;-60
2023/09/04 03:20:36;;;;;;;14.23;2.53;;;;;;;19.23;92.62;101121.06;5005373;28;20307;-59
2023/09/04 03:23:08;;;;;;;10.17;2.13;;;;;;;19.28;91.02;101119.09;4997028;28;20344;-57
2023/09/04 03:25:39;;;;;;;13.30;2.00;;;;;;;19.04;90.93;101104.13;5006273;28;20726;-62
2023/09/04 03:28:09;;;;;;;10.13;1.80;;;;;;;18.82;93.17;101120.84;4995830;28;20288;-59
2023/09/04 03:30:40;;;;;;;11.53;2.43;;;;;;;18.91;93.67;101114.34;5005275;28;20272;-60
2023/09/04 03:33:10;;;;;;;10.40;1.83;;;;;;;19.02;93.59;101116.56;4996190;28;20719;-59
2023/09/04 03:35:41;;;;;;;7.90;1.90;;;;;;;18.82;93.37;101112.91;5005696;28;20268;-61
2023/09/04 03:38:14;;;;;;;12.77;2.60;;;;;;;18.88;93.26;101131.22;4995753;28;20280;-61
2023/09/04 03:40:44;;;;;;;12.20;2.50;;;;;;;19.06;93.27;101118.19;5005545;28;20302;-61
2023/09/04 03:43:15;;;;;;;15.17;2.70;;;;;;;19.21;92.19;101122.91;4996050;28;20282;-60
2023/09/04 03:45:45;;;;;;;10.07;1.93;;;;;;;19.39;92.75;101121.31;5005115;28;20387;-57
2023/09/04 03:48:16;;;;;;;15.03;2.30;;;;;;;19.58;92.31;101105.56;4995582;28;20302;-61
2023/09/04 03:50:46;;;;;;;9.03;2.27;;;;;;;19.58;88.87;101105.56;5005474;28;20303;-60
2023/09/04 03:53:18;;;;;;;8.67;1.80;;;;;;;19.59;89.58;101101.97;4996222;28;20308;-60
2023/09/04 03:55:49;;;;;;;11.90;2.20;;;;;;;19.49;89.21;101100.63;5004886;28;20304;-62
2023/09/04 03:58:19;;;;;;;10.50;2.07;;;;;;;19.52;90.50;101095.19;4995644;28;20284;-61
2023/09/04 04:00:57;;;;;;;11.40;2.20;;;;;;;19.58;91.42;101094.94;5005008;28;20304;-62
2023/09/04 04:03:28;;;;;;;12.70;2.17;;;;;;;19.69;89.46;101090.09;4988219;28;20312;-61
2023/09/04 04:05:59;;;;;;;10.30;2.23;;;;;;;19.63;88.76;101078.88;4999260;28;20372;-60
2023/09/04 04:08:31;;;;;;;8.97;2.50;;;;;;;19.63;89.21;101071.75;5004853;28;20349;-59
2023/09/04 04:11:01;;;;;;;11.27;2.13;;;;;;;19.65;89.49;101064.63;4995569;28;20371;-60
2023/09/04 04:13:32;;;;;;;10.03;2.27;;;;;;;19.59;89.75;101064.84;5007697;28;20307;-63
2023/09/04 04:16:02;;;;;;;9.03;2.20;;;;;;;19.40;90.75;101039.13;4998624;28;20288;-61
2023/09/04 04:18:34;;;;;;;8.37;1.93;;;;;;;19.59;92.06;101070.16;5008698;28;20905;-62
2023/09/04 04:21:04;;;;;;;9.47;1.73;;;;;;;19.62;91.05;101080.66;4999555;28;20380;-60
2023/09/04 04:23:36;;;;;;;6.37;1.67;;;;;;;19.52;89.76;101066.03;5012128;28;20296;-61
2023/09/04 04:26:07;;;;;;;6.80;1.70;;;;;;;19.33;90.99;101072.06;5015502;28;20310;-57
2023/09/04 04:28:38;;;;;;;14.20;1.73;;;;;;;19.23;92.22;101073.38;5028207;28;20384;-61
2023/09/04 04:31:08;;;;;;;9.43;1.83;;;;;;;19.08;92.82;101084.56;5017837;28;20271;-60
2023/09/04 04:33:39;;;;;;;12.10;2.30;;;;;;;18.89;94.07;101079.97;5027661;28;20306;-58
2023/09/04 04:36:10;;;;;;;6.83;2.13;;;;;;;18.87;94.91;101086.22;5018647;28;20571;-59
2023/09/04 04:38:42;;;;;;;7.77;1.53;;;;;;;18.86;93.99;101085.38;5027567;28;20354;-58
2023/09/04 04:41:13;;;;;;;8.07;1.73;;;;;;;18.78;94.72;101082.16;5017744;28;20288;-58
2023/09/04 04:43:43;;;;;;;7.93;1.80;;;;;;;18.62;95.11;101096.84;5027406;28;20287;-59
2023/09/04 04:46:15;;;;;;;6.13;1.80;;;;;;;18.58;95.99;101089.94;5017377;28;20276;-60
2023/09/04 04:48:46;;;;;;;10.33;2.33;;;;;;;18.63;95.79;101091.50;5027086;28;20287;-63
2023/09/04 04:51:16;;;;;;;7.17;1.80;;;;;;;18.53;96.08;101096.25;5017855;28;20279;-61
2023/09/04 04:53:48;;;;;;;6.63;1.73;;;;;;;18.53;96.31;101093.63;5014504;28;20275;-61
2023/09/04 04:56:19;;;;;;;9.37;2.07;;;;;;;18.48;96.96;101089.41;5018071;28;20298;-62
2023/09/04 04:58:50;;;;;;;8.80;1.63;;;;;;;18.43;97.65;101081.63;5027243;28;20276;-59
2023/09/04 05:01:20;;;;;;;12.50;1.93;;;;;;;18.35;97.01;101073.13;5018054;28;20303;-61
2023/09/04 05:03:51;;;;;;;11.27;2.53;;;;;;;18.25;97.26;101067.28;5027865;28;20587;-61
2023/09/04 05:06:21;;;;;;;9.63;1.90;;;;;;;18.23;98.09;101081.50;5017594;28;20275;-57
2023/09/04 05:08:53;;;;;;;7.00;1.70;;;;;;;18.20;98.29;101085.09;5027670;28;20280;-59
2023/09/04 05:11:24;;;;;;;6.63;1.60;;;;;;;18.20;97.80;101082.47;5017071;28;20322;-58
2023/09/04 05:13:54;;;;;;;9.50;2.03;;;;;;;18.10;97.80;101084.56;5026898;28;20291;-58
2023/09/04 05:16:26;;;;;;;7.00;2.03;;;;;;;18.08;98.55;101086.38;5016935;28;20280;-60
2023/09/04 05:18:57;;;;;;;11.27;2.67;;;;;;;18.11;98.68;101083.63;5027270;28;20873;-58
2023/09/04 05:21:28;;;;;;;8.37;2.27;;;;;;;18.13;98.46;101085.38;5007091;28;20279;-58
2023/09/04 05:24:03;;;;;;;8.47;1.97;;;;;;;18.17;98.78;101084.34;5001585;28;20276;-60
2023/09/04 05:26:34;;;;;;;5.17;1.83;;;;;;;18.27;98.75;101085.75;5007565;28;20281;-60
2023/09/04 05:29:04;;;;;;;9.50;2.53;;;;;;;18.22;99.07;101077.09;4998003;28;20280;-61
2023/09/04 05:31:34;;;;;;;12.17;2.30;;;;;;;18.14;99.63;101084.44;5007660;28;20408;-61
2023/09/04 05:34:05;;;;;;;14.47;2.73;;;;;;;18.13;100.00;101094.16;4997906;28;20272;-58
2023/09/04 05:36:35;;;;;;;12.27;2.20;;;;;;;18.02;100.00;101086.63;5007629;28;20307;-58
2023/09/04 05:39:08;;;;;;;9.60;1.80;;;;;;;17.89;100.00;101093.22;4998256;28;20308;-59
2023/09/04 05:41:39;;;;;;;12.00;2.53;;;;;;;17.85;100.00;101088.97;5008891;28;20284;-58
2023/09/04 05:46:54;;;;;;;10.50;2.47;;;;;;;17.94;100.00;101082.50;5019419;28;20294;-61
2023/09/04 05:49:25;;;;;;;14.67;2.27;;;;;;;17.98;100.00;101074.41;5009675;28;20311;-61
2023/09/04 05:51:57;;;;;;;13.37;2.40;;;;;;;17.89;100.00;101080.00;5021721;28;20310;-60
2023/09/04 05:54:29;;;;;;;13.93;2.97;;;;;;;17.91;100.00;101099.31;4991453;28;20282;-63
2023/09/04 05:57:00;;;;;;;9.83;2.80;;;;;;;17.83;100.00;101104.00;4992751;28;20284;-60
2023/09/04 05:59:30;;;;;;;11.67;2.40;;;;;;;17.84;100.00;101103.94;5001638;28;20331;-61
2023/09/04 06:02:01;;;;;;;12.70;2.27;;;;;;;17.92;100.00;101110.75;4992715;28;20284;-62
2023/09/04 06:04:32;;;;;;;16.07;3.00;;;;;;;17.77;100.00;101106.81;5022475;28;20370;-64
2023/09/04 06:07:04;;;;;;;18.67;2.67;;;;;;;17.41;100.00;101063.03;5012828;28;20326;-60
2023/09/04 06:09:37;;;;;;;23.23;3.23;;;;;;;17.68;100.00;101098.25;5021293;28;20302;-62
2023/09/04 06:12:08;;;;;;;19.53;2.70;;;;;;;17.55;100.00;101090.81;5012562;28;20521;-59
2023/09/04 06:14:39;;;;;;;13.50;2.47;;;;;;;17.39;100.00;101090.41;5021621;28;20599;-64
2023/09/04 06:17:09;;;;;;;21.80;3.13;;;;;;;17.23;100.00;101075.03;5010974;28;20294;-63
2023/09/04 06:19:39;;;;;;;15.50;3.00;;;;;;;17.22;100.00;101078.59;5021555;28;20331;-64
2023/09/04 06:22:10;;;;;;;18.77;3.80;;;;;;;17.23;100.00;101068.91;5011374;28;20747;-61
2023/09/04 06:24:42;;;;;;;20.40;3.33;;;;;;;17.30;100.00;101075.72;5020904;28;20605;-60
2023/09/04 06:27:12;;;;;;;15.10;3.00;;;;;;;17.24;100.00;101065.34;5012043;28;20298;-60
2023/09/04 06:29:43;;;;;;;11.00;3.03;;;;;;;17.24;100.00;101066.19;5020796;28;20294;-61
2023/09/04 06:32:14;;;;;;;14.27;3.37;;;;;;;17.16;100.00;101073.50;5011492;28;20306;-60
2023/09/04 06:34:45;;;;;;;15.40;3.33;;;;;;;17.09;100.00;101077.22;5020504;28;20282;-62
2023/09/04 06:37:15;;;;;;;14.03;2.57;;;;;;;17.07;100.00;101075.53;5011753;28;20364;-61
2023/09/04 06:39:48;;;;;;;16.93;3.03;;;;;;;16.95;100.00;101053.03;5023911;28;20752;-62
2023/09/04 06:42:18;;;;;;;15.20;2.77;;;;;;;16.98;100.00;101056.44;5023665;28;20318;-62
2023/09/04 06:44:49;;;;;;;20.00;3.07;;;;;;;17.02;100.00;101059.84;5033647;28;20374;-63
2023/09/04 06:47:19;;;;;;;15.30;2.83;;;;;;;17.06;100.00;101056.22;5023586;28;21283;-62
2023/09/04 06:49:50;;;;;;;13.20;2.93;;;;;;;17.15;100.00;101050.66;5042968;28;20757;-63
2023/09/04 06:52:20;;;;;;;17.50;2.93;;;;;;;17.16;100.00;101057.66;5053638;28;20263;-63
2023/09/04 06:54:52;;;;;;;17.60;2.93;;;;;;;17.14;100.00;101048.91;5053319;28;20279;-62
2023/09/04 06:57:23;;;;;;;15.53;2.73;;;;;;;17.15;100.00;101055.06;5031971;28;20282;-60
2023/09/04 06:59:54;;;;;;;16.73;2.90;;;;;;;17.16;100.00;101057.66;5033712;28;20276;-61
2023/09/04 07:02:24;;;;;;;14.63;3.13;;;;;;;17.17;100.00;101058.50;5023692;28;20267;-61
2023/09/04 07:04:55;;;;;;;17.00;3.30;;;;;;;17.20;100.00;101056.66;5033471;28;20276;-62
2023/09/04 07:07:26;;;;;;;17.77;3.30;;;;;;;17.25;100.00;101046.81;5052945;28;20583;-62
2023/09/04 07:10:00;;;;;;;15.53;3.00;;;;;;;17.27;100.00;101032.69;5052736;28;20293;-62
2023/09/04 07:12:32;;;;;;;19.77;3.07;;;;;;;17.27;100.00;101027.41;5052478;28;20294;-62
2023/09/04 07:15:03;;;;;;;17.23;2.93;;;;;;;16.88;100.00;100967.03;5053449;28;20280;-62
2023/09/04 07:17:34;;;;;;;14.43;2.77;;;;;;;17.28;100.00;101037.06;5052526;28;20279;-62
2023/09/04 07:20:05;;;;;;;14.20;3.03;;;;;;;17.27;100.00;101032.69;5053469;28;20362;-62
2023/09/04 07:22:35;;;;;;;19.00;3.13;;;;;;;17.30;100.00;101032.56;5053610;28;20279;-62
2023/09/04 07:25:09;;;;;;;22.13;2.77;;;;;;;17.32;100.00;101031.59;5053392;28;20311;-62
2023/09/04 07:27:39;;;;;;;16.47;2.77;;;;;;;17.36;100.00;101027.09;5051759;28;20330;-64
2023/09/04 07:30:10;;;;;;;18.80;3.53;;;;;;;17.28;100.00;101039.72;5052500;28;20335;-64
2023/09/04 07:32:41;;;;;;;14.83;2.97;;;;;;;17.21;100.00;101055.72;5052896;28;20348;-63
2023/09/04 07:35:13;;;;;;;15.50;2.80;;;;;;;17.11;100.00;101059.56;5041049;28;20742;-61
2023/09/04 07:37:43;;;;;;;18.60;3.00;;;;;;;17.09;100.00;101061.38;5020212;28;20311;-61
2023/09/04 07:40:16;;;;;;;18.37;2.97;;;;;;;17.16;100.00;101047.09;5010574;28;20286;-62
2023/09/04 07:42:46;;;;;;;17.47;2.83;;;;;;;17.19;100.00;101044.34;5020524;28;20286;-60
2023/09/04 07:45:17;;;;;;;15.00;2.80;;;;;;;17.15;100.00;101045.38;5010772;28;20792;-62
2023/09/04 07:47:48;;;;;;;12.23;2.97;;;;;;;17.10;100.00;101046.41;5022920;28;20280;-62
2023/09/04 07:50:18;;;;;;;16.00;2.70;;;;;;;17.08;100.00;101054.38;5014455;28;20443;-62
2023/09/04 07:52:49;;;;;;;13.23;2.43;;;;;;;17.15;100.00;101045.38;5024578;28;20372;-62
2023/09/04 07:55:21;;;;;;;11.23;2.50;;;;;;;17.25;100.00;101030.97;5015543;28;20341;-63
2023/09/04 07:57:51;;;;;;;9.23;2.00;;;;;;;17.31;100.00;101029.91;5024746;28;20310;-61
2023/09/04 08:00:22;;;;;;;10.47;2.13;;;;;;;17.39;100.00;101027.00;5014008;28;20333;-57
2023/09/04 08:02:52;;;;;;;14.23;2.67;;;;;;;17.33;100.00;101032.50;5008496;28;20350;-62
2023/09/04 08:05:23;;;;;;;11.07;2.40;;;;;;;17.31;100.00;101034.31;5014120;28;20361;-61
2023/09/04 08:07:53;;;;;;;13.43;2.27;;;;;;;17.31;100.00;101029.03;5024490;28;20294;-59
2023/09/04 08:10:26;;;;;;;12.97;3.10;;;;;;;17.42;100.00;101026.91;5014561;28;20813;-62
2023/09/04 08:12:57;;;;;;;13.00;6.03;;;;;;;17.39;100.00;101022.56;5023060;28;20378;-62
2023/09/04 08:15:27;;;;;;;8.73;1.83;;;;;;;17.41;100.00;101019.91;5013126;28;20301;-61
2023/09/04 08:17:58;;;;;;;12.43;2.50;;;;;;;17.35;100.00;101020.09;5022607;28;20581;-61
2023/09/04 08:20:29;;;;;;;13.93;2.53;;;;;;;17.30;100.00;101029.94;5023794;28;20279;-62
2023/09/04 08:22:59;;;;;;;13.50;2.23;;;;;;;17.18;100.00;101040.00;5015839;28;20327;-58
2023/09/04 08:25:31;;;;;;;10.80;2.50;;;;;;;17.12;100.00;101045.44;5023609;28;20366;-61
2023/09/04 08:28:06;;;;;;;8.93;2.73;;;;;;;16.99;100.00;101038.81;5014116;28;20658;-61
2023/09/04 08:30:37;;;;;;;8.83;1.93;;;;;;;16.85;100.00;101038.38;5023219;28;20298;-60
2023/09/04 08:33:10;;;;;;;19.93;2.83;;;;;;;16.80;100.00;101044.66;5014053;28;20359;-61
2023/09/04 08:35:41;;;;;;;12.80;2.47;;;;;;;16.73;100.00;101029.88;5023420;28;20310;-60
2023/09/04 08:38:11;;;;;;;12.93;2.33;;;;;;;16.72;100.00;101030.78;5013913;28;20283;-62
2023/09/04 08:40:43;;;;;;;20.50;4.13;;;;;;;16.76;100.00;101036.84;5023427;28;20280;-61
2023/09/04 08:43:17;;;;;;;10.33;2.53;;;;;;;16.73;100.00;101043.09;5014480;28;20288;-63
2023/09/04 08:45:48;;;;;;;7.07;2.40;;;;;;;16.77;100.00;101042.09;5023149;28;20284;-60
2023/09/04 08:48:22;;;;;;;42.67;19.80;;;;;;;16.80;100.00;101039.38;5016439;28;20279;-59
2023/09/04 08:50:52;;;;;;;17.77;6.87;;;;;;;16.80;100.00;101039.38;5016043;28;20316;-59
2023/09/04 08:53:23;;;;;;;11.30;2.67;;;;;;;16.80;100.00;101049.94;4994144;28;20280;-59
2023/09/04 08:55:57;;;;;;;14.50;4.50;;;;;;;16.77;100.00;101052.66;4993408;28;20736;-59
2023/09/04 08:58:28;;;;;;;15.93;3.63;;;;;;;16.84;100.00;101055.13;5006300;28;20280;-61
2023/09/04 09:00:59;;;;;;;7.10;2.57;;;;;;;16.66;100.00;101023.06;5012748;28;20264;-58
2023/09/04 09:03:32;;;;;;;12.63;3.60;;;;;;;16.76;100.00;101047.41;5022589;28;20283;-62
2023/09/04 09:06:06;;;;;;;9.10;2.57;;;;;;;16.79;100.00;101053.47;5013355;28;20275;-62
2023/09/04 09:08:38;;;;;;;7.43;2.20;;;;;;;16.71;100.00;101055.44;5023120;28;20311;-60
2023/09/04 09:11:10;;;;;;;19.27;3.17;;;;;;;16.56;100.00;101058.53;5012779;28;20374;-61
2023/09/04 09:13:44;;;;;;;14.60;2.30;;;;;;;16.52;100.00;101085.91;5009602;28;20783;-61
2023/09/04 09:16:21;;;;;;;11.83;2.57;;;;;;;16.45;100.00;101084.34;4992736;28;20296;-60
2023/09/04 09:18:58;;;;;;;;;;;;;;;16.44;100.00;101074.72;5019369;28;20857;-60
2023/09/04 09:21:36;;;;;;;14.57;2.13;;;;;;;16.33;100.00;101065.31;5003801;28;20041;-60
2023/09/04 09:24:18;;;;;;;;;;;;;;;16.37;100.00;101076.63;5014226;28;20288;-59
2023/09/04 09:26:52;;;;;;;9.17;2.13;;;;;;;16.45;100.00;101071.16;5023046;28;19928;-61
2023/09/04 09:29:26;;;;;;;10.30;2.80;;;;;;;16.49;100.00;101059.63;4993824;28;20358;-61
2023/09/04 09:31:58;;;;;;;11.67;2.10;;;;;;;16.45;100.00;101057.97;5002890;28;20315;-61
2023/09/04 09:34:35;;;;;;;8.63;2.00;;;;;;;16.42;100.00;101058.06;5011993;28;20291;-60
2023/09/04 09:37:07;;;;;;;10.07;2.10;;;;;;;16.44;100.00;101066.78;5012586;28;20283;-61
2023/09/04 09:39:39;;;;;;;11.23;2.30;;;;;;;16.44;100.00;101062.38;5022624;28;20291;-61
2023/09/04 09:42:13;;;;;;;12.17;3.47;;;;;;;16.42;100.00;101058.91;5012811;28;20275;-58
2023/09/04 09:44:44;;;;;;;8.50;3.43;;;;;;;16.33;100.00;101065.31;5022413;28;20291;-61
2023/09/04 09:47:16;;;;;;;11.97;2.87;;;;;;;16.26;100.00;101074.31;5011995;28;20275;-58
2023/09/04 09:49:48;;;;;;;16.73;2.57;;;;;;;16.20;100.00;101068.31;5022430;28;20352;-60
2023/09/04 09:52:20;;;;;;;12.50;2.70;;;;;;;16.21;100.00;101060.38;5012272;28;20334;-60
2023/09/04 09:54:51;;;;;;;13.53;2.63;;;;;;;16.16;100.00;101047.31;5021774;28;20287;-60
2023/09/04 09:57:28;;;;;;;16.03;2.83;;;;;;;16.09;100.00;101051.00;5011803;28;20263;-60
2023/09/04 10:00:02;;;;;;;15.23;2.77;;;;;;;15.98;100.00;101044.31;5014054;28;20384;-59
2023/09/04 10:02:33;;;;;;;8.77;2.63;;;;;;;16.03;100.00;101059.09;5022037;28;20295;-58
2023/09/04 10:05:09;;;;;;;13.93;2.83;;;;;;;15.98;100.00;101062.78;5011165;28;20681;-60
2023/09/04 10:07:41;;;;;;;10.13;2.50;;;;;;;15.90;100.00;101061.19;5021789;28;20333;-58
2023/09/04 10:10:15;;;;;;;14.03;3.00;;;;;;;15.91;100.00;101062.06;5011562;28;20285;-59
2023/09/04 10:12:51;;;;;;;14.40;3.00;;;;;;;15.87;100.00;101061.25;5021825;28;20291;-60
2023/09/04 10:15:25;;;;;;;16.93;3.70;;;;;;;15.86;100.00;101075.34;5011184;28;20288;-58
2023/09/04 10:18:03;;;;;;;15.63;3.67;;;;;;;15.85;100.00;101068.34;5021443;28;20765;-61
2023/09/04 10:20:37;;;;;;;11.27;2.70;;;;;;;15.80;100.00;101072.00;5011515;28;20353;-59
2023/09/04 10:23:10;;;;;;;15.63;3.07;;;;;;;15.75;100.00;101066.84;5011233;28;20276;-61
2023/09/04 10:25:49;;;;;;;12.27;2.50;;;;;;;15.78;100.00;101072.03;5021458;28;20818;-60
2023/09/04 10:28:24;;;;;;;;;;;;;;;15.81;100.00;101077.22;5011645;28;20275;-60
2023/09/04 10:31:14;;;;;;;13.00;3.23;;;;;;;15.80;100.00;101080.78;5011317;28;20023;-60
2023/09/04 10:33:46;;;;;;;12.47;2.57;;;;;;;15.77;100.00;101075.56;5021769;28;20277;-59
2023/09/04 10:36:19;;;;;;;8.03;2.80;;;;;;;15.79;100.00;101070.28;5012098;28;20272;-59
2023/09/04 10:38:52;;;;;;;15.30;2.70;;;;;;;15.78;100.00;101072.03;5021513;28;20287;-60
2023/09/04 10:41:24;;;;;;;16.40;3.00;;;;;;;15.75;100.00;101066.84;5010912;28;20283;-59
2023/09/04 10:43:58;;;;;;;21.13;3.53;;;;;;;15.75;100.00;101069.50;5021168;28;20761;-59
2023/09/04 10:46:30;;;;;;;12.60;2.53;;;;;;;15.76;100.00;101060.66;5011321;28;20291;-58
2023/09/04 10:49:01;;;;;;;14.20;2.90;;;;;;;15.74;100.00;101059.84;5010650;28;20291;-59
2023/09/04 10:51:35;;;;;;;10.33;2.13;;;;;;;15.56;100.00;101026.03;5020635;28;20275;-59
2023/09/04 10:54:27;;;;;;;15.87;3.00;;;;;;;15.79;100.00;101060.59;5012131;28;20342;-59
2023/09/04 10:57:00;;;;;;;15.33;2.83;;;;;;;15.23;100.00;100989.09;5017612;28;20306;-59
2023/09/04 11:00:11;;;;;;;11.10;3.27;;;;;;;15.83;100.00;101067.53;5020671;28;20838;-59
2023/09/04 11:02:43;;;;;;;12.00;3.00;;;;;;;15.89;100.00;101064.72;5020761;28;20302;-60
2023/09/04 11:05:15;;;;;;;11.93;3.27;;;;;;;15.91;100.00;101062.91;5011058;28;20307;-58
2023/09/04 11:07:47;;;;;;;12.37;3.20;;;;;;;15.89;100.00;101062.09;5020890;28;20370;-58
2023/09/04 11:10:38;;;;;;;10.27;2.57;;;;;;;15.90;100.00;101066.47;5011065;28;20490;-59
2023/09/04 11:13:13;;;;;;;10.67;2.90;;;;;;;15.84;100.00;101055.22;5010876;28;20310;-59
2023/09/04 11:15:47;;;;;;;10.80;2.60;;;;;;;15.86;100.00;101059.53;5021365;28;20394;-60
2023/09/04 11:18:18;;;;;;;9.97;2.60;;;;;;;15.86;100.00;101059.53;5011296;28;20420;-60
2023/09/04 11:20:57;;;;;;;12.00;2.57;;;;;;;15.75;100.00;101051.06;5001190;28;20323;-59
2023/09/04 11:23:29;;;;;;;16.27;2.60;;;;;;;15.69;100.00;101037.97;4994442;28;20306;-58
2023/09/04 11:26:01;;;;;;;12.23;2.80;;;;;;;15.71;100.00;101041.47;4994752;28;20276;-59
2023/09/04 11:28:33;;;;;;;10.37;2.50;;;;;;;15.76;100.00;101041.38;5004989;28;20296;-60
2023/09/04 11:31:08;;;;;;;10.70;2.70;;;;;;;15.75;100.00;101045.78;4994920;28;20280;-59
2023/09/04 11:33:40;;;;;;;12.43;3.10;;;;;;;15.73;100.00;101031.78;5019552;28;20279;-59
2023/09/04 11:36:12;;;;;;;8.90;2.53;;;;;;;15.73;100.00;101042.31;5015588;28;20283;-58
2023/09/04 11:38:44;;;;;;;11.67;3.33;;;;;;;15.70;100.00;101026.56;5025130;28;20274;-59
2023/09/04 11:41:19;;;;;;;11.90;3.00;;;;;;;15.67;100.00;101021.34;5015301;28;20283;-59
2023/09/04 11:43:51;;;;;;;7.70;3.10;;;;;;;15.72;100.00;101027.38;5025091;28;20279;-59
2023/09/04 11:46:29;;;;;;;10.13;3.30;;;;;;;15.68;100.00;101023.94;5011010;28;20296;-59
2023/09/04 11:49:00;;;;;;;16.90;2.90;;;;;;;15.65;100.00;101017.88;5021781;28;20801;-57
2023/09/04 11:51:32;;;;;;;11.47;3.20;;;;;;;15.65;100.00;101018.75;5029417;28;20800;-57
2023/09/04 11:54:09;;;;;;;10.40;2.77;;;;;;;15.66;100.00;101015.22;5019768;28;20284;-57
2023/09/04 11:56:40;;;;;;;12.30;3.27;;;;;;;15.59;100.00;101020.69;5028562;28;20366;-59
2023/09/04 11:59:13;;;;;;;7.27;2.90;;;;;;;15.58;100.00;101026.88;5017050;28;20275;-56
2023/09/04 12:01:49;;;;;;;6.37;2.73;;;;;;;15.60;100.00;101014.50;5008782;28;20284;-58